createdAt,value
2022-12-08T00:00:55.081Z,92.21
2022-12-08T00:03:21.905Z,92.36
2022-12-08T00:06:08.294Z,91.80
2022-12-08T00:08:53.471Z,91.86
2022-12-08T00:11:20.298Z,92.27
2022-12-08T00:13:47.819Z,92.46
2022-12-08T00:16:14.753Z,91.32
2022-12-08T00:18:42.053Z,91.68
2022-12-08T00:21:08.700Z,90.95
2022-12-08T00:23:35.105Z,90.87
2022-12-08T00:26:05.569Z,91.19
2022-12-08T00:28:33.542Z,91.73
2022-12-08T00:31:00.925Z,91.26
2022-12-08T00:33:28.208Z,91.18
2022-12-08T00:35:54.789Z,90.98
2022-12-08T00:38:21.163Z,91.77
2022-12-08T00:40:47.695Z,91.50
2022-12-08T00:43:14.931Z,90.91
2022-12-08T00:45:41.538Z,91.35
2022-12-08T00:48:08.100Z,90.54
2022-12-08T00:50:37.836Z,90.18
2022-12-08T00:53:04.655Z,89.58
2022-12-08T00:55:31.171Z,90.23
2022-12-08T00:57:57.565Z,90.74
2022-12-08T01:00:24.310Z,90.84
2022-12-08T01:02:51.056Z,90.45
2022-12-08T01:05:17.733Z,90.47
2022-12-08T01:07:44.531Z,90.68
2022-12-08T01:10:11.304Z,92.37
2022-12-08T01:12:37.890Z,91.99
2022-12-08T01:15:04.818Z,92.69
2022-12-08T01:17:31.638Z,91.56
2022-12-08T01:19:58.345Z,92.40
2022-12-08T01:22:25.079Z,92.38
2022-12-08T01:24:51.665Z,92.37
2022-12-08T01:27:18.091Z,91.92
2022-12-08T01:29:44.579Z,92.71
2022-12-08T01:32:11.051Z,92.60
2022-12-08T01:34:37.743Z,91.98
2022-12-08T01:37:04.408Z,92.57
2022-12-08T01:39:30.972Z,91.88
2022-12-08T01:41:57.556Z,92.14
2022-12-08T01:44:23.972Z,92.34
2022-12-08T01:46:53.311Z,91.79
2022-12-08T01:49:30.302Z,91.60
2022-12-08T01:52:05.030Z,90.94
2022-12-08T01:54:36.995Z,91.83
2022-12-08T01:57:08.999Z,92.28
2022-12-08T01:59:41.264Z,92.68
2022-12-08T02:02:10.271Z,92.74
2022-12-08T02:04:36.720Z,92.50
2022-12-08T02:07:08.117Z,92.96
2022-12-08T02:09:36.516Z,93.27
2022-12-08T02:12:03.327Z,93.40
2022-12-08T02:14:29.943Z,92.97
2022-12-08T02:17:10.836Z,92.71
2022-12-08T02:20:13.152Z,92.49
2022-12-08T02:22:52.483Z,91.43
2022-12-08T02:25:56.808Z,92.48
2022-12-08T02:29:02.177Z,93.20
2022-12-08T02:31:44.328Z,91.44
2022-12-08T02:34:19.936Z,92.52
2022-12-08T02:37:06.379Z,92.76
2022-12-08T02:39:46.877Z,92.38
2022-12-08T02:42:32.700Z,93.33
2022-12-08T02:45:20.392Z,92.94
2022-12-08T02:47:47.792Z,93.30
2022-12-08T02:50:15.565Z,92.53
2022-12-08T02:52:45.463Z,92.25
2022-12-08T02:55:38.526Z,93.11
2022-12-08T02:58:20.544Z,92.49
2022-12-08T03:01:21.007Z,92.49
2022-12-08T03:04:08.492Z,91.62
2022-12-08T03:07:12.660Z,91.85
2022-12-08T03:09:46.712Z,91.72
2022-12-08T03:12:24.203Z,92.51
2022-12-08T03:14:53.714Z,92.56
2022-12-08T03:17:23.420Z,92.22
2022-12-08T03:19:50.093Z,91.60
2022-12-08T03:22:21.676Z,91.65
2022-12-08T03:24:48.477Z,92.35
2022-12-08T03:27:19.979Z,92.21
2022-12-08T03:29:48.745Z,92.46
2022-12-08T03:32:24.578Z,92.75
2022-12-08T03:34:53.123Z,92.13
2022-12-08T03:37:20.792Z,92.44
2022-12-08T03:39:48.266Z,92.66
2022-12-08T03:42:15.098Z,92.44
2022-12-08T03:44:41.613Z,92.14
2022-12-08T03:47:08.406Z,92.13
2022-12-08T03:49:35.273Z,92.64
2022-12-08T03:52:02.204Z,92.42
2022-12-08T03:54:28.976Z,92.13
2022-12-08T03:56:55.444Z,91.45
2022-12-08T03:59:21.987Z,91.61
2022-12-08T04:01:48.572Z,92.04
2022-12-08T04:04:15.251Z,90.98
2022-12-08T04:06:41.767Z,91.01
2022-12-08T04:09:09.160Z,91.62
2022-12-08T04:11:36.172Z,91.51
2022-12-08T04:14:02.826Z,90.49
2022-12-08T04:16:29.445Z,91.32
2022-12-08T04:18:56.054Z,90.31
2022-12-08T04:21:22.910Z,90.79
2022-12-08T04:23:50.072Z,91.77
2022-12-08T04:26:17.203Z,91.95
2022-12-08T04:28:44.341Z,92.10
2022-12-08T04:31:11.142Z,92.44
2022-12-08T04:33:38.084Z,92.69
2022-12-08T04:36:05.190Z,92.14
2022-12-08T04:38:31.701Z,91.52
2022-12-08T04:40:58.485Z,89.60
2022-12-08T04:43:25.195Z,90.50
2022-12-08T04:45:51.920Z,90.72
2022-12-08T04:48:18.626Z,91.43
2022-12-08T04:50:46.131Z,90.86
2022-12-08T04:53:13.529Z,91.08
2022-12-08T04:55:44.904Z,91.00
2022-12-08T04:58:13.780Z,91.13
2022-12-08T05:00:40.896Z,90.85
2022-12-08T05:03:07.563Z,88.63
2022-12-08T05:05:34.355Z,88.63
2022-12-08T05:08:01.245Z,88.60
2022-12-08T05:10:27.849Z,88.47
2022-12-08T05:12:54.760Z,89.04
2022-12-08T05:15:21.515Z,85.82
2022-12-08T05:17:47.997Z,88.51
2022-12-08T05:20:14.920Z,88.51
2022-12-08T05:22:41.500Z,87.76
2022-12-08T05:25:08.367Z,88.94
2022-12-08T05:27:35.807Z,89.60
2022-12-08T05:30:02.603Z,88.49
2022-12-08T05:32:29.502Z,87.71
2022-12-08T05:34:56.314Z,87.87
2022-12-08T05:37:22.758Z,89.42
2022-12-08T05:39:49.398Z,87.85
2022-12-08T05:42:19.342Z,89.53
2022-12-08T05:44:48.494Z,89.85
2022-12-08T05:47:15.014Z,89.05
2022-12-08T05:49:41.421Z,90.54
2022-12-08T05:52:09.291Z,90.64
2022-12-08T05:54:36.313Z,89.86
2022-12-08T05:57:02.920Z,89.21
2022-12-08T05:59:29.644Z,89.06
2022-12-08T06:01:56.254Z,89.18
2022-12-08T06:04:23.049Z,89.24
2022-12-08T06:06:49.625Z,88.65
2022-12-08T06:09:16.273Z,87.93
2022-12-08T06:11:46.306Z,87.58
2022-12-08T06:14:13.256Z,88.00
2022-12-08T06:16:40.078Z,87.74
2022-12-08T06:19:06.833Z,88.38
2022-12-08T06:21:33.539Z,88.41
2022-12-08T06:24:00.756Z,89.26
2022-12-08T06:26:27.650Z,88.60
2022-12-08T06:28:54.594Z,88.18
2022-12-08T06:31:24.101Z,88.89
2022-12-08T06:33:51.241Z,89.29
2022-12-08T06:36:20.792Z,89.72
2022-12-08T06:38:47.856Z,88.09
2022-12-08T06:41:14.908Z,89.33
2022-12-08T06:43:42.409Z,88.34
2022-12-08T06:46:12.773Z,89.48
2022-12-08T06:48:39.254Z,88.26
2022-12-08T06:51:11.055Z,88.76
2022-12-08T06:53:40.466Z,89.26
2022-12-08T06:56:07.570Z,88.96
2022-12-08T06:58:34.764Z,87.98
2022-12-08T07:01:14.922Z,88.28
2022-12-08T07:03:43.543Z,88.12
2022-12-08T07:06:20.566Z,88.06
2022-12-08T07:08:47.127Z,88.73
2022-12-08T07:11:19.667Z,87.91
2022-12-08T07:13:48.299Z,88.47
2022-12-08T07:16:17.320Z,88.28
2022-12-08T07:18:44.236Z,86.90
2022-12-08T07:21:14.766Z,86.12
2022-12-08T07:23:42.576Z,87.17
2022-12-08T07:26:11.358Z,86.38
2022-12-08T07:28:40.079Z,87.07
2022-12-08T07:31:08.711Z,87.75
2022-12-08T07:33:36.040Z,86.59
2022-12-08T07:36:05.177Z,85.83
2022-12-08T07:38:32.049Z,86.41
2022-12-08T07:40:58.792Z,87.25
2022-12-08T07:43:25.600Z,85.68
2022-12-08T07:45:52.329Z,86.07
2022-12-08T07:48:23.682Z,85.47
2022-12-08T07:50:50.134Z,84.22
2022-12-08T07:53:17.059Z,84.44
2022-12-08T07:55:44.602Z,84.79
2022-12-08T07:58:11.547Z,85.73
2022-12-08T08:00:38.379Z,86.37
2022-12-08T08:03:08.394Z,88.19
2022-12-08T08:05:40.775Z,87.76
2022-12-08T08:08:07.290Z,86.99
2022-12-08T08:10:33.839Z,85.20
2022-12-08T08:13:01.651Z,85.84
2022-12-08T08:15:28.845Z,85.92
2022-12-08T08:17:55.391Z,86.41
2022-12-08T08:20:26.270Z,85.45
2022-12-08T08:22:53.001Z,84.95
2022-12-08T08:25:22.647Z,86.00
2022-12-08T08:27:50.468Z,87.53
2022-12-08T08:30:20.716Z,87.56
2022-12-08T08:32:49.182Z,86.50
2022-12-08T08:35:16.644Z,84.82
2022-12-08T08:37:48.595Z,87.59
2022-12-08T08:40:16.805Z,87.77
2022-12-08T08:42:43.968Z,84.57
2022-12-08T08:45:11.185Z,84.07
2022-12-08T08:47:37.787Z,84.51
2022-12-08T08:50:05.312Z,84.13
2022-12-08T08:52:35.634Z,85.20
2022-12-08T08:55:02.518Z,85.75
2022-12-08T08:57:31.859Z,83.41
2022-12-08T09:00:02.841Z,85.66
2022-12-08T09:02:29.842Z,85.13
2022-12-08T09:04:59.541Z,85.68
2022-12-08T09:07:26.256Z,86.26
2022-12-08T09:09:55.754Z,86.26
2022-12-08T09:12:26.529Z,84.17
2022-12-08T09:14:53.208Z,82.41
2022-12-08T09:17:19.602Z,82.13
2022-12-08T09:19:49.047Z,82.58
2022-12-08T09:22:16.440Z,85.12
2022-12-08T09:24:42.997Z,84.96
2022-12-08T09:27:11.211Z,81.57
2022-12-08T09:29:37.670Z,82.83
2022-12-08T09:32:05.066Z,81.13
2022-12-08T09:34:31.806Z,81.90
2022-12-08T09:36:58.347Z,83.04
2022-12-08T09:39:25.230Z,81.20
2022-12-08T09:42:07.327Z,80.25
2022-12-08T09:44:46.744Z,82.08
2022-12-08T09:47:35.491Z,82.36
2022-12-08T09:50:28.791Z,80.67
2022-12-08T09:53:14.620Z,81.69
2022-12-08T09:55:46.268Z,80.93
2022-12-08T09:58:21.279Z,82.96
2022-12-08T10:00:47.984Z,80.61
2022-12-08T10:03:16.857Z,78.92
2022-12-08T10:05:56.120Z,80.04
2022-12-08T10:08:30.999Z,80.36
2022-12-08T10:11:10.563Z,80.32
2022-12-08T10:14:13.496Z,80.45
2022-12-08T10:16:48.771Z,79.85
2022-12-08T10:19:25.150Z,80.62
2022-12-08T10:21:53.284Z,79.61
2022-12-08T10:24:34.442Z,81.28
2022-12-08T10:27:02.154Z,81.14
2022-12-08T10:29:28.790Z,81.16
2022-12-08T10:31:59.479Z,76.87
2022-12-08T10:34:26.950Z,79.75
2022-12-08T10:36:58.380Z,80.30
2022-12-08T10:39:40.096Z,81.23
2022-12-08T10:42:09.108Z,77.61
2022-12-08T10:44:52.236Z,77.65
2022-12-08T10:47:22.497Z,79.38
2022-12-08T10:50:44.013Z,77.20
2022-12-08T10:53:24.038Z,78.51
2022-12-08T10:56:05.309Z,79.10
2022-12-08T10:58:40.639Z,78.14
2022-12-08T11:01:26.520Z,79.08
2022-12-08T11:04:01.803Z,74.84
2022-12-08T11:06:40.833Z,75.37
2022-12-08T11:09:24.514Z,74.08
2022-12-08T11:11:52.213Z,73.19
2022-12-08T11:14:23.633Z,75.40
2022-12-08T11:16:59.185Z,73.09
2022-12-08T11:19:29.509Z,73.62
2022-12-08T11:21:58.891Z,76.54
2022-12-08T11:24:30.231Z,77.04
2022-12-08T11:27:02.675Z,76.27
2022-12-08T11:29:32.147Z,72.69
2022-12-08T11:32:19.206Z,75.52
2022-12-08T11:37:24.103Z,73.26
2022-12-08T11:39:55.289Z,74.62
2022-12-08T11:42:28.991Z,73.89
2022-12-08T11:45:03.793Z,74.38
2022-12-08T11:47:37.363Z,74.70
2022-12-08T11:50:25.648Z,71.89
2022-12-08T11:52:53.030Z,71.57
2022-12-08T11:55:42.665Z,72.89
2022-12-08T11:58:38.128Z,72.13
2022-12-08T12:01:05.362Z,73.05
2022-12-08T12:03:46.150Z,70.87
2022-12-08T12:06:53.081Z,70.54
2022-12-08T12:09:41.232Z,71.04
2022-12-08T12:12:16.581Z,70.61
2022-12-08T12:14:43.186Z,72.22
2022-12-08T12:17:27.901Z,70.08
2022-12-08T12:20:01.978Z,72.02
2022-12-08T12:22:34.695Z,71.76
2022-12-08T12:25:02.183Z,71.61
2022-12-08T12:27:39.029Z,72.17
2022-12-08T12:30:20.468Z,73.38
2022-12-08T12:32:53.937Z,72.13
2022-12-08T12:35:32.157Z,71.30
2022-12-08T12:38:25.375Z,70.60
2022-12-08T12:41:00.194Z,72.16
2022-12-08T12:43:35.927Z,74.62
2022-12-08T12:46:25.399Z,74.53
2022-12-08T12:48:52.772Z,74.94
2022-12-08T12:51:42.673Z,71.37
2022-12-08T12:54:22.842Z,72.30
2022-12-08T12:57:16.301Z,72.06
2022-12-08T12:59:51.769Z,72.19
2022-12-08T13:02:28.917Z,72.42
2022-12-08T13:05:22.348Z,72.98
2022-12-08T13:08:04.246Z,72.75
2022-12-08T13:10:37.535Z,72.08
2022-12-08T13:13:12.179Z,72.99
2022-12-08T13:15:52.760Z,72.46
2022-12-08T13:18:23.725Z,72.35
2022-12-08T13:20:57.933Z,72.62
2022-12-08T13:23:42.973Z,74.73
2022-12-08T13:26:23.863Z,72.04
2022-12-08T13:29:01.224Z,71.88
2022-12-08T13:31:45.099Z,71.67
2022-12-08T13:34:47.987Z,72.63
2022-12-08T13:37:43.380Z,73.71
2022-12-08T13:40:20.784Z,71.69
2022-12-08T13:42:58.743Z,70.81
2022-12-08T13:46:48.692Z,72.80
2022-12-08T13:50:42.659Z,73.03
2022-12-08T13:57:32.838Z,69.86
2022-12-08T14:00:07.226Z,69.41
2022-12-08T14:02:42.040Z,70.42
2022-12-08T14:05:23.779Z,74.79
2022-12-08T14:08:00.369Z,73.08
2022-12-08T14:10:30.365Z,72.57
2022-12-08T14:13:05.401Z,69.04
2022-12-08T14:15:37.783Z,71.06
2022-12-08T14:18:04.749Z,67.71
2022-12-08T14:20:46.361Z,68.83
2022-12-08T14:23:19.167Z,70.04
2022-12-08T14:25:47.665Z,69.37
2022-12-08T14:28:14.471Z,69.50
2022-12-08T14:30:45.029Z,67.65
2022-12-08T14:33:19.461Z,69.67
2022-12-08T14:35:52.266Z,69.02
2022-12-08T14:38:20.439Z,69.68
2022-12-08T14:41:07.792Z,69.42
2022-12-08T14:43:34.817Z,71.09
2022-12-08T14:46:21.777Z,72.06
2022-12-08T14:48:48.412Z,72.06
2022-12-08T14:51:23.917Z,70.27
2022-12-08T14:53:58.716Z,70.32
2022-12-08T14:56:36.663Z,69.93
2022-12-08T14:59:09.258Z,71.38
2022-12-08T15:01:36.948Z,67.13
2022-12-08T15:04:12.768Z,71.36
2022-12-08T15:07:04.801Z,72.09
2022-12-08T15:09:34.137Z,71.60
2022-12-08T15:12:12.694Z,74.53
2022-12-08T15:14:53.560Z,74.15
2022-12-08T15:17:29.394Z,77.40
2022-12-08T15:19:57.000Z,78.08
2022-12-08T15:22:24.077Z,78.51
2022-12-08T15:24:50.644Z,76.87
2022-12-08T15:27:19.903Z,79.62
2022-12-08T15:29:47.788Z,77.73
2022-12-08T15:32:21.322Z,78.82
2022-12-08T15:34:48.478Z,80.74
2022-12-08T15:37:26.492Z,79.88
2022-12-08T15:39:53.436Z,78.10
2022-12-08T15:42:19.854Z,77.25
2022-12-08T15:44:47.002Z,80.33
2022-12-08T15:47:19.068Z,78.72
2022-12-08T15:49:47.458Z,80.11
2022-12-08T15:52:17.078Z,79.97
2022-12-08T15:54:44.103Z,81.07
2022-12-08T15:57:44.118Z,78.42
2022-12-08T16:04:09.328Z,74.45
2022-12-08T16:09:12.354Z,72.43
2022-12-08T16:12:09.371Z,73.45
2022-12-08T16:17:24.969Z,72.02
2022-12-08T16:20:15.222Z,73.94
2022-12-08T16:22:56.365Z,70.92
2022-12-08T16:25:27.271Z,73.60
2022-12-08T16:28:02.856Z,72.26
2022-12-08T16:30:32.868Z,72.44
2022-12-08T16:32:59.420Z,70.75
2022-12-08T16:35:26.317Z,75.27
2022-12-08T16:37:52.990Z,72.68
2022-12-08T16:40:19.728Z,75.94
2022-12-08T16:42:48.433Z,77.89
2022-12-08T16:45:17.954Z,77.23
2022-12-08T16:47:47.743Z,75.08
2022-12-08T16:50:29.471Z,74.96
2022-12-08T16:53:05.137Z,77.84
2022-12-08T16:55:33.052Z,77.14
2022-12-08T16:57:59.598Z,76.33
2022-12-08T17:00:31.497Z,76.85
2022-12-08T17:02:58.816Z,77.39
2022-12-08T17:05:25.998Z,77.44
2022-12-08T17:07:53.942Z,77.83
2022-12-08T17:10:23.480Z,77.43
2022-12-08T17:12:51.105Z,76.64
2022-12-08T17:15:21.511Z,79.02
2022-12-08T17:17:48.759Z,78.47
2022-12-08T17:20:18.167Z,80.25
2022-12-08T17:22:46.246Z,79.07
2022-12-08T17:25:13.911Z,79.92
2022-12-08T17:27:41.284Z,78.54
2022-12-08T17:30:11.129Z,81.80
2022-12-08T17:32:38.865Z,80.73
2022-12-08T17:35:06.403Z,78.49
2022-12-08T17:37:33.394Z,79.96
2022-12-08T17:39:59.837Z,78.47
2022-12-08T17:42:27.163Z,79.72
2022-12-08T17:44:54.532Z,79.78
2022-12-08T17:47:21.954Z,78.96
2022-12-08T17:49:48.758Z,82.61
2022-12-08T17:52:15.328Z,81.35
2022-12-08T17:54:41.985Z,82.03
2022-12-08T17:57:08.616Z,83.62
2022-12-08T17:59:35.284Z,83.30
2022-12-08T18:02:02.325Z,82.30
2022-12-08T18:04:28.833Z,81.40
2022-12-08T18:06:55.375Z,82.66
2022-12-08T18:09:22.320Z,79.93
2022-12-08T18:11:49.133Z,80.50
2022-12-08T18:14:16.903Z,81.15
2022-12-08T18:16:46.186Z,81.79
2022-12-08T18:19:14.980Z,80.98
2022-12-08T18:21:42.334Z,80.95
2022-12-08T18:24:14.440Z,81.58
2022-12-08T18:26:40.913Z,82.69
2022-12-08T18:29:07.930Z,83.33
2022-12-08T18:31:34.480Z,82.39
2022-12-08T18:34:02.507Z,80.85
2022-12-08T18:36:29.049Z,80.76
2022-12-08T18:38:55.709Z,79.86
2022-12-08T18:41:25.652Z,79.70
2022-12-08T18:43:54.060Z,79.50
2022-12-08T18:46:21.401Z,81.56
2022-12-08T18:48:50.002Z,82.30
2022-12-08T18:51:19.105Z,82.04
2022-12-08T18:53:46.459Z,83.63
2022-12-08T18:56:39.314Z,84.00
2022-12-08T18:59:08.328Z,82.88
2022-12-08T19:01:37.868Z,82.39
2022-12-08T19:06:53.494Z,83.74
2022-12-08T19:09:20.330Z,84.69
2022-12-08T19:11:47.013Z,85.25
2022-12-08T19:14:13.545Z,85.95
2022-12-08T19:16:40.274Z,86.26
2022-12-08T19:19:07.074Z,84.62
2022-12-08T19:21:33.981Z,86.48
2022-12-08T19:24:01.429Z,86.48
2022-12-08T19:26:28.338Z,86.78
2022-12-08T19:28:55.091Z,87.28
2022-12-08T19:31:21.770Z,86.76
2022-12-08T19:33:48.467Z,87.03
2022-12-08T19:36:17.985Z,87.28
2022-12-08T19:39:03.699Z,87.77
2022-12-08T19:41:48.947Z,87.88
2022-12-08T19:44:44.729Z,88.33
2022-12-08T19:47:11.439Z,88.01
2022-12-08T19:49:38.980Z,87.27
2022-12-08T19:52:06.472Z,85.73
2022-12-08T19:54:32.831Z,85.41
2022-12-08T19:56:59.715Z,86.72
2022-12-08T19:59:26.402Z,87.33
2022-12-08T20:01:55.674Z,88.32
2022-12-08T20:04:23.920Z,88.54
2022-12-08T20:06:52.180Z,87.88
2022-12-08T20:09:20.261Z,88.29
2022-12-08T20:11:46.965Z,88.72
2022-12-08T20:14:13.684Z,88.18
2022-12-08T20:16:41.635Z,89.14
2022-12-08T20:19:08.991Z,88.34
2022-12-08T20:21:35.441Z,89.69
2022-12-08T20:24:01.954Z,89.04
2022-12-08T20:26:28.366Z,88.41
2022-12-08T20:28:55.064Z,89.20
2022-12-08T20:31:27.418Z,87.62
2022-12-08T20:33:54.973Z,87.87
2022-12-08T20:36:21.885Z,88.42
2022-12-08T20:38:50.439Z,89.18
2022-12-08T20:41:17.866Z,88.08
2022-12-08T20:43:46.613Z,87.80
2022-12-08T20:46:16.387Z,88.12
2022-12-08T20:48:44.236Z,88.59
2022-12-08T20:51:16.426Z,88.59
2022-12-08T20:53:43.700Z,88.50
2022-12-08T20:56:14.911Z,88.95
2022-12-08T20:58:42.047Z,89.86
2022-12-08T21:01:10.756Z,89.47
2022-12-08T21:03:39.062Z,89.27
2022-12-08T21:06:05.951Z,90.20
2022-12-08T21:08:32.757Z,89.70
2022-12-08T21:10:59.631Z,88.15
2022-12-08T21:13:26.683Z,87.68
2022-12-08T21:15:53.519Z,88.34
2022-12-08T21:18:20.525Z,89.49
2022-12-08T21:20:48.264Z,89.68
2022-12-08T21:23:16.490Z,89.31
2022-12-08T21:25:45.829Z,89.93
2022-12-08T21:28:13.283Z,89.56
2022-12-08T21:30:40.865Z,89.03
2022-12-08T21:33:07.440Z,90.24
2022-12-08T21:35:34.527Z,89.94
2022-12-08T21:38:01.261Z,89.51
2022-12-08T21:40:27.727Z,89.85
2022-12-08T21:42:54.466Z,90.01
2022-12-08T21:45:21.930Z,89.66
2022-12-08T21:47:49.770Z,88.60
2022-12-08T21:50:18.467Z,88.89
2022-12-08T21:52:47.629Z,89.37
2022-12-08T21:55:16.660Z,89.78
2022-12-08T21:57:43.176Z,89.68
2022-12-08T22:00:13.276Z,90.05
2022-12-08T22:02:40.092Z,90.23
2022-12-08T22:05:07.142Z,89.39
2022-12-08T22:07:37.887Z,89.69
2022-12-08T22:10:07.012Z,89.94
2022-12-08T22:12:35.751Z,88.94
2022-12-08T22:15:06.939Z,89.84
2022-12-08T22:17:41.732Z,89.18
2022-12-08T22:20:12.845Z,89.46
2022-12-08T22:22:40.933Z,89.17
2022-12-08T22:25:11.910Z,89.80
2022-12-08T22:27:40.963Z,90.08
2022-12-08T22:30:09.376Z,88.12
2022-12-08T22:32:37.143Z,88.25
2022-12-08T22:35:03.861Z,88.73
2022-12-08T22:37:31.333Z,88.59
2022-12-08T22:39:58.149Z,89.19
2022-12-08T22:42:25.138Z,90.49
2022-12-08T22:44:51.860Z,89.83
2022-12-08T22:47:19.309Z,90.21
2022-12-08T22:49:46.383Z,89.97
2022-12-08T22:52:13.090Z,90.23
2022-12-08T22:54:40.027Z,90.41
2022-12-08T22:57:06.750Z,89.32
2022-12-08T22:59:34.589Z,89.36
2022-12-08T23:02:01.221Z,90.09
2022-12-08T23:04:28.231Z,90.06
2022-12-08T23:06:55.165Z,90.17
2022-12-08T23:09:21.634Z,90.21
2022-12-08T23:11:48.460Z,89.35
2022-12-08T23:14:16.015Z,89.92
2022-12-08T23:16:43.192Z,89.81
2022-12-08T23:19:09.881Z,90.08
2022-12-08T23:21:36.498Z,89.67
2022-12-08T23:24:03.622Z,89.97
2022-12-08T23:26:32.700Z,90.52
2022-12-08T23:28:59.714Z,90.08
2022-12-08T23:31:27.247Z,90.20
2022-12-08T23:33:54.869Z,89.96
2022-12-08T23:36:24.918Z,90.81
2022-12-08T23:38:52.326Z,89.89
2022-12-08T23:41:19.049Z,89.64
2022-12-08T23:43:48.419Z,90.46
2022-12-08T23:46:16.071Z,89.66
2022-12-08T23:48:43.282Z,89.51
2022-12-08T23:51:11.095Z,90.09
2022-12-08T23:53:38.213Z,90.97
2022-12-08T23:56:07.176Z,91.23
2022-12-08T23:58:34.961Z,91.58
